Time;durP1;ratioP1;P1;durP2;ratioP2;P2;SDS_P1;SDS_P2;PMS_P1;PMS_P2;Temp;Humidity;BMP_temperature;BMP_pressure;BME280_temperature;BME280_humidity;BME280_pressure;Samples;Min_cycle;Max_cycle;Signal;HPM_P1;HPM_P2
2021/12/17 00:00:01;;;;;;;180.73;37.05;;;8.20;99.90;;;;;;5092765;28;20050;-75
2021/12/17 00:05:14;;;;;;;204.13;37.65;;;8.20;99.90;;;;;;5093791;28;20048;-75
2021/12/17 00:07:40;;;;;;;175.77;36.70;;;8.20;99.90;;;;;;5093558;28;20055;-75
2021/12/17 00:10:18;;;;;;;229.43;39.15;;;8.20;99.90;;;;;;5093139;28;20047;-75
2021/12/17 00:12:45;;;;;;;170.90;36.58;;;8.20;99.90;;;;;;5093203;28;20055;-75
2021/12/17 00:15:12;;;;;;;163.23;35.45;;;8.10;99.90;;;;;;5103972;28;20040;-75
2021/12/17 00:17:49;;;;;;;185.40;36.10;;;8.20;99.90;;;;;;5113686;28;20048;-75
2021/12/17 00:49:47;;;;;;;219.35;37.60;;;8.10;99.90;;;;;;5092733;28;20500;-74
2021/12/17 00:52:13;;;;;;;188.85;37.45;;;8.10;99.90;;;;;;5092883;28;20047;-74
2021/12/17 00:54:42;;;;;;;204.60;37.08;;;8.20;99.90;;;;;;5092082;28;20161;-74
2021/12/17 00:57:23;;;;;;;179.23;36.28;;;8.10;99.90;;;;;;5093151;28;20083;-74
2021/12/17 00:59:51;;;;;;;179.00;36.92;;;8.20;99.90;;;;;;5092364;28;20047;-74
2021/12/17 01:02:25;;;;;;;183.88;36.35;;;8.20;99.90;;;;;;5093062;28;20048;-74
2021/12/17 01:04:55;;;;;;;149.77;35.45;;;8.10;99.90;;;;;;5091470;28;20491;-74
2021/12/17 01:07:24;;;;;;;167.43;36.47;;;8.20;99.90;;;;;;5093244;28;20409;-75
2021/12/17 01:09:51;;;;;;;185.68;36.78;;;8.20;99.90;;;;;;5091563;28;20044;-75
2021/12/17 01:12:18;;;;;;;222.65;39.40;;;8.10;99.90;;;;;;5092684;28;20051;-75
2021/12/17 01:14:46;;;;;;;172.65;36.85;;;8.10;99.90;;;;;;5092214;28;20480;-75
2021/12/17 01:17:14;;;;;;;167.13;35.88;;;8.20;99.90;;;;;;5092913;28;20220;-74
2021/12/17 01:25:00;;;;;;;186.85;36.55;;;8.20;99.90;;;;;;5091823;28;20043;-74
2021/12/17 01:35:42;;;;;;;191.38;39.05;;;8.20;99.90;;;;;;5092770;28;20059;-74
2021/12/17 01:43:30;;;;;;;168.07;38.90;;;8.20;99.90;;;;;;5096481;28;20162;-74
2021/12/17 01:45:57;;;;;;;282.05;43.08;;;8.20;99.90;;;;;;5092888;28;20048;-74
2021/12/17 01:48:31;;;;;;;186.63;38.28;;;8.20;99.90;;;;;;5092512;28;20040;-74
2021/12/17 01:56:52;;;;;;;234.57;41.35;;;8.20;99.90;;;;;;5077864;28;20048;-74
2021/12/17 01:59:35;;;;;;;285.67;43.58;;;8.20;99.90;;;;;;5092276;28;20087;-75
2021/12/17 02:02:05;;;;;;;243.43;42.47;;;8.10;99.90;;;;;;5091875;28;20040;-74
2021/12/17 02:04:32;;;;;;;203.77;41.00;;;8.20;99.90;;;;;;5090667;28;20405;-74
2021/12/17 02:06:59;;;;;;;208.93;41.58;;;8.20;99.90;;;;;;5091797;28;20525;-74
2021/12/17 02:10:00;;;;;;;192.73;40.38;;;8.20;99.90;;;;;;5092304;28;20050;-75
2021/12/17 02:12:30;;;;;;;187.93;37.65;;;8.20;99.90;;;;;;5092147;28;20087;-72
2021/12/17 02:20:39;;;;;;;131.60;29.30;;;8.20;99.90;;;;;;5092521;28;20051;-75
2021/12/17 02:31:46;;;;;;;96.65;21.35;;;8.20;99.90;;;;;;5095559;28;20052;-74
2021/12/17 02:36:50;;;;;;;93.85;21.17;;;8.30;99.90;;;;;;5095247;28;20052;-74
2021/12/17 02:47:11;;;;;;;88.55;20.02;;;8.20;99.90;;;;;;5075501;28;20049;-75
2021/12/17 02:49:40;;;;;;;92.55;20.77;;;8.20;99.90;;;;;;5075293;28;20469;-75
2021/12/17 02:52:07;;;;;;;80.90;20.20;;;8.30;99.90;;;;;;5093828;28;20051;-75
2021/12/17 02:54:35;;;;;;;80.90;18.80;;;8.30;99.90;;;;;;5094848;28;20051;-74
2021/12/17 02:57:01;;;;;;;69.68;16.98;;;8.20;99.90;;;;;;5095724;28;20055;-75
2021/12/17 02:59:28;;;;;;;64.70;16.63;;;8.20;99.90;;;;;;5095028;28;20528;-75
2021/12/17 03:01:56;;;;;;;63.47;16.48;;;8.20;99.90;;;;;;5103065;28;20127;-74
2021/12/17 03:04:22;;;;;;;84.95;17.27;;;8.20;99.90;;;;;;5095547;28;20040;-75
2021/12/17 03:06:48;;;;;;;82.15;17.20;;;8.20;99.90;;;;;;5101170;28;20412;-75
2021/12/17 03:09:15;;;;;;;72.68;17.52;;;8.20;99.90;;;;;;5082485;28;20051;-74
2021/12/17 03:11:41;;;;;;;75.90;18.35;;;8.20;99.90;;;;;;5093656;28;20492;-74
2021/12/17 03:14:08;;;;;;;68.43;18.02;;;8.20;99.90;;;;;;5094797;28;20114;-74
2021/12/17 03:16:43;;;;;;;64.32;17.35;;;8.20;99.90;;;;;;5094528;28;20494;-75
2021/12/17 03:19:26;;;;;;;59.75;17.20;;;8.10;99.90;;;;;;5094215;28;20071;-75
2021/12/17 03:24:36;;;;;;;71.20;17.85;;;8.20;99.90;;;;;;5094635;28;20044;-74
2021/12/17 03:27:04;;;;;;;66.13;17.63;;;8.20;99.90;;;;;;5094388;28;20432;-74
2021/12/17 03:29:30;;;;;;;66.05;16.98;;;8.20;99.90;;;;;;5094307;28;20505;-74
2021/12/17 03:31:58;;;;;;;57.45;17.23;;;8.10;99.90;;;;;;5093902;28;20546;-74
2021/12/17 03:34:24;;;;;;;64.57;17.88;;;8.20;99.90;;;;;;5094385;28;20476;-75
2021/12/17 03:36:56;;;;;;;73.00;18.23;;;8.20;99.90;;;;;;5094222;28;20113;-74
2021/12/17 03:39:25;;;;;;;66.88;17.90;;;8.10;99.90;;;;;;5092751;28;20492;-74
2021/12/17 03:41:52;;;;;;;69.60;16.52;;;8.20;99.90;;;;;;5094100;28;20036;-74
2021/12/17 03:44:20;;;;;;;63.17;16.15;;;8.20;99.90;;;;;;5094558;28;20109;-75
2021/12/17 03:46:48;;;;;;;73.90;18.45;;;8.20;99.90;;;;;;5094387;28;20039;-72
2021/12/17 03:49:15;;;;;;;82.90;18.95;;;8.20;99.90;;;;;;5093932;28;20044;-74
2021/12/17 03:51:50;;;;;;;71.10;18.70;;;8.20;99.90;;;;;;5094276;28;20443;-74
2021/12/17 03:54:16;;;;;;;68.30;19.00;;;8.10;99.90;;;;;;5092910;28;20119;-74
2021/12/17 03:56:42;;;;;;;75.47;18.38;;;8.10;99.90;;;;;;5094319;28;20044;-74
2021/12/17 03:59:10;;;;;;;65.75;17.95;;;8.10;99.90;;;;;;5092996;28;20046;-74
2021/12/17 04:01:38;;;;;;;69.53;18.45;;;8.20;99.90;;;;;;5094278;28;20060;-75
2021/12/17 04:04:05;;;;;;;77.50;19.15;;;8.10;99.90;;;;;;5093630;28;20051;-74
2021/12/17 04:06:31;;;;;;;74.85;18.95;;;8.10;99.90;;;;;;5094154;28;20048;-74
2021/12/17 04:08:56;;;;;;;70.53;17.80;;;8.10;99.90;;;;;;5093523;28;20117;-74
2021/12/17 04:11:22;;;;;;;62.47;16.98;;;8.10;99.90;;;;;;5093561;28;20131;-74
2021/12/17 04:13:54;;;;;;;66.72;17.77;;;8.10;99.90;;;;;;5093903;28;20431;-75
2021/12/17 04:16:27;;;;;;;63.78;17.98;;;8.20;99.90;;;;;;5109923;28;20094;-74
2021/12/17 04:18:54;;;;;;;66.03;18.17;;;8.10;99.90;;;;;;5096494;28;20047;-74
2021/12/17 04:21:20;;;;;;;72.35;17.98;;;8.10;99.90;;;;;;5094174;27;20051;-74
2021/12/17 04:23:48;;;;;;;63.78;17.90;;;8.10;99.90;;;;;;5094082;28;20040;-75
2021/12/17 04:26:16;;;;;;;58.60;17.45;;;8.20;99.90;;;;;;5093000;28;20091;-74
2021/12/17 04:28:48;;;;;;;65.93;17.83;;;8.20;99.90;;;;;;5093863;28;20100;-74
2021/12/17 04:31:15;;;;;;;59.95;17.90;;;8.20;99.90;;;;;;5100578;28;20044;-75
2021/12/17 04:33:42;;;;;;;66.60;17.45;;;8.10;99.90;;;;;;5093379;28;20400;-75
2021/12/17 04:36:11;;;;;;;48.55;15.52;;;8.20;99.90;;;;;;5094042;28;20043;-75
2021/12/17 04:38:37;;;;;;;55.30;16.85;;;8.10;99.90;;;;;;5093102;28;20052;-75
2021/12/17 04:41:37;;;;;;;50.22;15.88;;;8.20;99.90;;;;;;5093935;28;20055;-74
2021/12/17 04:44:11;;;;;;;55.05;15.70;;;8.20;99.90;;;;;;5092062;28;20051;-74
2021/12/17 04:57:54;;;;;;;51.85;15.80;;;8.20;99.90;;;;;;5080935;28;20075;-75
2021/12/17 05:00:24;;;;;;;50.20;15.63;;;8.10;99.90;;;;;;5103652;28;20055;-74
2021/12/17 05:02:53;;;;;;;55.00;15.90;;;8.10;99.90;;;;;;5093256;28;20044;-74
2021/12/17 05:05:22;;;;;;;52.65;16.02;;;8.10;99.90;;;;;;5111422;28;20118;-74
2021/12/17 05:08:00;;;;;;;46.50;14.63;;;8.20;99.90;;;;;;5113549;28;20381;-74
2021/12/17 05:18:32;;;;;;;45.67;14.70;;;8.20;99.90;;;;;;5102376;28;20122;-74
2021/12/17 05:21:02;;;;;;;39.95;14.45;;;8.10;99.90;;;;;;5092512;28;20115;-72
2021/12/17 05:23:32;;;;;;;43.72;15.43;;;8.10;99.90;;;;;;5101200;28;20044;-74
2021/12/17 05:26:05;;;;;;;50.45;15.07;;;8.10;99.90;;;;;;5106075;28;20110;-72
2021/12/17 05:28:31;;;;;;;44.78;14.88;;;8.10;99.90;;;;;;5099684;28;20044;-74
2021/12/17 05:30:56;;;;;;;61.13;16.25;;;8.10;99.90;;;;;;5098003;28;20062;-74
2021/12/17 05:33:24;;;;;;;53.17;14.98;;;8.00;99.90;;;;;;5099165;28;20579;-74
2021/12/17 05:35:50;;;;;;;51.30;15.25;;;8.00;99.90;;;;;;5105307;28;20036;-74
2021/12/17 05:38:17;;;;;;;57.55;16.48;;;8.00;99.90;;;;;;5091822;28;20484;-74
2021/12/17 05:40:44;;;;;;;46.83;15.95;;;8.00;99.90;;;;;;5092025;28;20051;-74
2021/12/17 05:43:11;;;;;;;48.47;15.45;;;8.00;99.90;;;;;;5091921;28;20495;-74
2021/12/17 05:48:09;;;;;;;50.15;15.35;;;8.00;99.90;;;;;;5094644;28;20501;-74
2021/12/17 05:50:39;;;;;;;51.90;16.25;;;8.10;99.90;;;;;;5092610;28;20047;-74
2021/12/17 05:53:07;;;;;;;41.38;14.88;;;8.00;99.90;;;;;;5076594;28;20047;-74
2021/12/17 05:55:34;;;;;;;45.60;14.68;;;8.00;99.90;;;;;;5112452;28;20066;-74
2021/12/17 05:58:00;;;;;;;43.80;15.02;;;8.00;99.90;;;;;;5095991;28;20404;-74
2021/12/17 06:00:30;;;;;;;51.75;16.10;;;8.00;99.90;;;;;;5095993;28;20047;-74
2021/12/17 06:02:58;;;;;;;48.40;16.38;;;8.00;99.90;;;;;;5096247;28;20052;-73
2021/12/17 06:05:25;;;;;;;47.80;15.68;;;8.00;99.90;;;;;;5086272;28;20046;-74
2021/12/17 06:07:51;;;;;;;47.05;15.63;;;8.00;99.90;;;;;;5096467;28;20052;-74
2021/12/17 06:10:17;;;;;;;52.08;16.23;;;8.00;99.90;;;;;;5114593;28;20118;-74
2021/12/17 06:12:43;;;;;;;49.13;15.80;;;8.00;99.90;;;;;;5116728;28;20079;-74
2021/12/17 06:15:12;;;;;;;52.95;15.70;;;7.90;99.90;;;;;;5107502;28;20507;-74
2021/12/17 06:17:38;;;;;;;42.67;14.60;;;7.90;99.90;;;;;;5097377;28;20473;-74
2021/12/17 06:20:06;;;;;;;47.63;14.40;;;7.90;99.90;;;;;;5111143;28;20073;-72
2021/12/17 06:22:32;;;;;;;44.70;14.90;;;7.90;99.90;;;;;;5102355;28;20040;-74
2021/12/17 06:24:58;;;;;;;44.00;15.35;;;7.90;99.90;;;;;;5095542;28;20047;-75
2021/12/17 06:27:24;;;;;;;50.92;15.07;;;7.90;99.90;;;;;;5106966;28;20044;-75
2021/12/17 06:29:51;;;;;;;44.75;14.85;;;7.90;99.90;;;;;;5105483;28;20075;-75
2021/12/17 06:32:18;;;;;;;47.83;15.68;;;7.90;99.90;;;;;;5074776;28;20575;-74
2021/12/17 06:34:44;;;;;;;48.30;16.00;;;7.90;99.90;;;;;;5093791;28;20088;-74
2021/12/17 06:37:10;;;;;;;50.72;15.98;;;7.90;99.90;;;;;;5101947;28;20048;-74
2021/12/17 06:39:36;;;;;;;44.05;16.02;;;7.90;99.90;;;;;;5103138;28;20055;-75
2021/12/17 06:42:03;;;;;;;54.03;16.40;;;7.90;99.90;;;;;;5100160;28;20043;-75
2021/12/17 06:44:29;;;;;;;49.45;16.25;;;7.90;99.90;;;;;;5100775;28;20409;-75
2021/12/17 06:47:08;;;;;;;49.35;15.93;;;7.90;99.90;;;;;;5108950;27;20544;-75
2021/12/17 07:00:08;;;;;;;48.25;16.35;;;7.90;99.90;;;;;;5095560;28;20051;-75
2021/12/17 07:10:50;;;;;;;48.38;16.73;;;7.90;99.90;;;;;;5108935;28;20480;-74
2021/12/17 07:19:50;;;;;;;57.55;18.98;;;7.90;99.90;;;;;;5092546;28;20126;-75
2021/12/17 07:22:03;;;;;;;52.95;17.70;;;7.90;99.90;;;;;;5101041;28;20047;-75
2021/12/17 07:40:11;;;;;;;59.35;18.80;;;7.90;99.90;;;;;;5099777;28;20483;-76
2021/12/17 07:42:37;;;;;;;61.85;17.75;;;7.90;99.90;;;;;;5112750;28;20441;-77
2021/12/17 07:45:04;;;;;;;52.05;17.98;;;8.00;99.90;;;;;;5104185;28;20119;-75
2021/12/17 07:47:29;;;;;;;55.65;18.08;;;8.00;99.90;;;;;;5093945;28;20048;-75
2021/12/17 07:49:55;;;;;;;52.38;17.67;;;8.00;99.90;;;;;;5110727;28;20527;-75
2021/12/17 07:52:21;;;;;;;50.30;17.98;;;8.00;99.90;;;;;;5103350;28;20170;-75
2021/12/17 07:54:47;;;;;;;50.63;16.80;;;8.00;99.90;;;;;;5094099;28;20123;-76
2021/12/17 07:57:12;;;;;;;47.65;17.55;;;8.00;99.90;;;;;;5094444;28;20051;-77
2021/12/17 07:59:39;;;;;;;48.50;16.65;;;8.00;99.90;;;;;;5093639;28;20044;-75
2021/12/17 08:02:06;;;;;;;48.92;16.50;;;8.00;99.90;;;;;;5092973;28;20501;-76
2021/12/17 08:04:32;;;;;;;51.80;16.27;;;8.00;99.90;;;;;;5114025;28;20035;-78
2021/12/17 08:06:57;;;;;;;50.85;17.45;;;8.00;99.90;;;;;;5104570;28;20055;-78
2021/12/17 08:09:24;;;;;;;42.28;16.35;;;8.00;99.90;;;;;;5093512;28;20067;-78
2021/12/17 08:11:57;;;;;;;51.83;17.35;;;8.00;99.90;;;;;;5100712;28;20044;-78
2021/12/17 08:14:25;;;;;;;56.88;18.42;;;8.00;99.90;;;;;;5093030;28;20054;-78
2021/12/17 08:17:01;;;;;;;45.47;16.55;;;8.00;99.90;;;;;;5087399;28;20051;-78
2021/12/17 08:25:11;;;;;;;46.03;17.25;;;8.10;99.90;;;;;;5093543;28;20074;-78
2021/12/17 08:30:25;;;;;;;41.00;15.60;;;8.00;99.90;;;;;;5093927;28;19974;-78
2021/12/17 08:32:51;;;;;;;45.33;17.00;;;8.00;99.90;;;;;;5084447;28;20040;-77
2021/12/17 08:35:17;;;;;;;44.03;15.77;;;8.10;99.90;;;;;;5087292;28;20040;-77
2021/12/17 08:37:43;;;;;;;42.55;15.70;;;8.10;99.90;;;;;;5093815;28;20059;-77
2021/12/17 08:40:10;;;;;;;46.15;16.13;;;8.10;99.90;;;;;;5089846;28;20056;-78
2021/12/17 08:42:36;;;;;;;40.10;15.68;;;8.20;99.90;;;;;;5092806;28;20130;-77
2021/12/17 08:45:03;;;;;;;44.25;16.98;;;8.20;99.90;;;;;;5090406;28;20154;-75
2021/12/17 08:47:29;;;;;;;43.35;16.17;;;8.20;99.90;;;;;;5094257;28;20036;-77
2021/12/17 08:49:56;;;;;;;44.92;16.48;;;8.20;99.90;;;;;;5087176;28;20040;-77
2021/12/17 08:52:22;;;;;;;42.05;16.88;;;8.20;99.90;;;;;;5075325;28;20052;-73
2021/12/17 08:54:48;;;;;;;40.42;16.70;;;8.20;99.90;;;;;;5089802;28;20085;-77
2021/12/17 08:57:14;;;;;;;41.80;16.92;;;8.30;99.90;;;;;;5090179;28;20124;-76
2021/12/17 08:59:39;;;;;;;43.20;16.33;;;8.30;99.90;;;;;;5087637;28;20040;-75
2021/12/17 09:02:05;;;;;;;41.80;15.75;;;8.30;99.90;;;;;;5087587;28;20634;-77
2021/12/17 09:04:31;;;;;;;45.95;16.73;;;8.30;99.90;;;;;;5097038;28;20752;-77
2021/12/17 09:06:57;;;;;;;39.42;16.45;;;8.30;99.90;;;;;;5095890;28;20134;-76
2021/12/17 09:09:23;;;;;;;43.10;15.77;;;8.40;99.90;;;;;;5098438;28;20378;-74
2021/12/17 09:11:49;;;;;;;40.92;16.23;;;8.40;99.90;;;;;;5098447;28;20046;-78
2021/12/17 09:14:19;;;;;;;43.83;15.40;;;8.40;99.90;;;;;;5095026;28;20044;-73
2021/12/17 09:16:46;;;;;;;42.30;16.88;;;8.40;99.90;;;;;;5080738;28;20694;-77
2021/12/17 09:19:12;;;;;;;42.75;16.77;;;8.50;99.90;;;;;;5078123;28;20536;-77
2021/12/17 09:21:38;;;;;;;38.83;16.23;;;8.50;99.90;;;;;;5074265;28;20044;-77
2021/12/17 09:24:05;;;;;;;39.25;16.80;;;8.50;99.90;;;;;;5085077;28;20046;-76
2021/12/17 09:26:33;;;;;;;36.72;15.82;;;8.50;99.90;;;;;;5088748;28;20055;-77
2021/12/17 09:28:59;;;;;;;34.63;15.65;;;8.50;99.90;;;;;;5091507;28;20039;-77
2021/12/17 09:31:25;;;;;;;34.80;14.52;;;8.50;99.90;;;;;;5091693;28;20048;-74
2021/12/17 09:33:51;;;;;;;32.58;15.15;;;8.60;99.90;;;;;;5089446;28;20032;-77
2021/12/17 09:36:18;;;;;;;34.08;16.48;;;8.60;99.90;;;;;;5089870;28;20047;-78
2021/12/17 09:38:49;;;;;;;34.35;15.77;;;8.60;99.90;;;;;;5088015;28;20060;-74
2021/12/17 09:41:16;;;;;;;37.15;17.23;;;8.60;99.90;;;;;;5086819;28;20051;-78
2021/12/17 09:43:43;;;;;;;36.20;15.98;;;8.60;99.90;;;;;;5082514;28;20093;-77
2021/12/17 09:46:09;;;;;;;31.17;15.60;;;8.70;99.90;;;;;;5075337;28;20044;-77
2021/12/17 09:48:36;;;;;;;33.88;15.95;;;8.60;99.90;;;;;;5091986;28;20048;-78
2021/12/17 09:51:04;;;;;;;31.85;15.43;;;8.70;99.90;;;;;;5096365;28;20044;-78
2021/12/17 09:53:31;;;;;;;33.10;15.52;;;8.70;99.90;;;;;;5089970;28;20048;-78
2021/12/17 09:55:57;;;;;;;30.60;15.82;;;8.70;99.90;;;;;;5099954;28;20040;-79
2021/12/17 09:58:23;;;;;;;29.52;15.52;;;8.70;99.90;;;;;;5112397;28;20507;-78
2021/12/17 10:00:49;;;;;;;30.38;16.23;;;8.70;99.90;;;;;;5090175;28;20119;-78
2021/12/17 10:03:14;;;;;;;32.10;16.20;;;8.70;99.90;;;;;;5092369;28;20129;-78
2021/12/17 10:05:41;;;;;;;29.10;14.55;;;8.70;99.90;;;;;;5091886;28;20048;-78
2021/12/17 10:08:12;;;;;;;26.83;14.15;;;8.70;99.90;;;;;;5090626;28;20443;-78
2021/12/17 10:10:56;;;;;;;28.00;14.82;;;8.80;99.90;;;;;;5098697;28;20430;-77
2021/12/17 10:13:33;;;;;;;28.08;14.98;;;8.80;99.90;;;;;;5097170;28;20055;-78
2021/12/17 10:16:05;;;;;;;27.60;14.40;;;8.80;99.90;;;;;;5093587;28;20043;-78
2021/12/17 10:18:48;;;;;;;26.65;14.75;;;8.70;99.90;;;;;;5092961;28;20058;-73
2021/12/17 10:21:21;;;;;;;29.63;15.30;;;8.80;99.90;;;;;;5097023;28;20048;-77
2021/12/17 10:23:48;;;;;;;29.75;16.17;;;8.80;99.90;;;;;;5086753;28;20042;-78
2021/12/17 10:26:15;;;;;;;30.63;15.75;;;8.80;99.90;;;;;;5092157;28;20058;-78
2021/12/17 10:29:04;;;;;;;31.90;16.80;;;8.90;99.90;;;;;;5091640;28;20060;-78
2021/12/17 10:31:35;;;;;;;31.05;15.48;;;8.90;99.90;;;;;;5100159;28;20043;-77
2021/12/17 10:34:03;;;;;;;30.13;16.50;;;8.80;99.90;;;;;;5111898;28;20050;-77
2021/12/17 10:36:43;;;;;;;28.73;15.77;;;8.80;99.90;;;;;;5103188;28;20044;-77
2021/12/17 10:39:30;;;;;;;27.90;16.08;;;8.90;99.90;;;;;;5087951;28;20052;-78
2021/12/17 10:41:56;;;;;;;27.60;15.30;;;8.90;99.90;;;;;;5095173;28;20056;-78
2021/12/17 10:44:23;;;;;;;29.55;15.90;;;8.90;99.90;;;;;;5081073;28;20495;-78
2021/12/17 10:47:09;;;;;;;28.35;15.55;;;8.90;99.90;;;;;;5097029;28;20043;-78
2021/12/17 10:49:35;;;;;;;28.70;15.05;;;8.90;99.90;;;;;;5113783;28;20058;-73
2021/12/17 10:52:06;;;;;;;27.88;15.35;;;8.90;99.90;;;;;;5104257;28;20465;-77
2021/12/17 10:54:33;;;;;;;28.75;15.35;;;8.90;99.90;;;;;;5114158;28;20036;-78
2021/12/17 10:56:59;;;;;;;30.38;16.60;;;8.90;99.90;;;;;;5115735;28;20070;-78
2021/12/17 10:59:31;;;;;;;27.83;15.25;;;9.00;99.90;;;;;;5106692;28;20504;-78
2021/12/17 11:02:04;;;;;;;29.63;14.82;;;9.00;99.90;;;;;;5104306;27;20350;-76
2021/12/17 11:04:33;;;;;;;25.48;15.02;;;9.10;99.90;;;;;;5090418;28;20115;-77
2021/12/17 11:07:14;;;;;;;22.80;13.73;;;9.10;99.90;;;;;;5102133;27;20112;-77
2021/12/17 11:09:47;;;;;;;20.52;13.43;;;9.10;99.90;;;;;;5090089;28;20048;-76
2021/12/17 11:12:29;;;;;;;21.58;12.82;;;9.10;99.90;;;;;;5071223;28;20056;-76
2021/12/17 11:15:07;;;;;;;19.45;12.65;;;9.20;99.90;;;;;;5081910;28;20047;-78
2021/12/17 11:17:33;;;;;;;19.88;13.38;;;9.20;99.90;;;;;;5091365;28;20075;-77
2021/12/17 11:20:05;;;;;;;22.27;13.35;;;9.20;99.90;;;;;;5093960;28;20716;-77
2021/12/17 11:22:31;;;;;;;20.30;13.30;;;9.20;99.90;;;;;;5109918;28;20404;-77
2021/12/17 11:25:01;;;;;;;20.42;13.00;;;9.20;99.90;;;;;;5114659;28;20118;-77
2021/12/17 11:27:28;;;;;;;18.75;12.95;;;9.20;99.90;;;;;;5100851;28;20496;-77
2021/12/17 11:29:54;;;;;;;18.65;12.40;;;9.30;99.90;;;;;;5110111;28;20079;-77
2021/12/17 11:32:20;;;;;;;16.45;11.85;;;9.40;99.90;;;;;;5100025;28;20108;-77
2021/12/17 11:34:45;;;;;;;17.35;12.50;;;9.30;99.90;;;;;;5094166;28;20040;-77
2021/12/17 11:37:12;;;;;;;17.67;12.40;;;9.40;99.90;;;;;;5103882;28;20062;-77
2021/12/17 11:39:52;;;;;;;17.23;12.32;;;9.40;99.90;;;;;;5105390;28;20055;-77
2021/12/17 11:42:59;;;;;;;16.80;12.52;;;9.40;99.90;;;;;;5083908;28;20044;-77
2021/12/17 11:45:27;;;;;;;14.75;11.40;;;9.40;99.90;;;;;;5075746;28;20095;-76
2021/12/17 11:48:10;;;;;;;15.68;11.40;;;9.50;99.90;;;;;;5113195;28;20048;-77
2021/12/17 11:50:36;;;;;;;16.10;11.68;;;9.50;99.90;;;;;;5113003;28;20044;-77
2021/12/17 11:53:23;;;;;;;14.85;11.27;;;9.50;99.90;;;;;;5093494;28;20044;-77
2021/12/17 11:55:58;;;;;;;15.90;11.73;;;9.50;99.90;;;;;;5093822;28;20059;-77
2021/12/17 11:58:43;;;;;;;14.75;11.65;;;9.50;99.90;;;;;;5094610;28;20501;-77
2021/12/17 12:01:09;;;;;;;15.50;11.13;;;9.50;99.90;;;;;;5094007;28;20052;-77
2021/12/17 12:03:35;;;;;;;14.88;10.93;;;9.50;99.90;;;;;;5096951;28;20487;-77
2021/12/17 12:06:01;;;;;;;14.63;11.38;;;9.60;99.90;;;;;;5113990;28;20097;-77
2021/12/17 12:08:48;;;;;;;14.57;11.50;;;9.60;99.90;;;;;;5111925;28;20503;-77
2021/12/17 12:11:18;;;;;;;13.90;11.30;;;9.60;99.90;;;;;;5096294;28;20127;-77
2021/12/17 12:13:51;;;;;;;15.25;11.13;;;9.60;99.90;;;;;;5110266;28;20048;-74
2021/12/17 12:16:24;;;;;;;14.00;10.65;;;9.60;99.90;;;;;;5093715;28;20048;-77
2021/12/17 12:18:57;;;;;;;14.45;11.15;;;9.60;99.90;;;;;;5094121;28;20397;-77
2021/12/17 12:21:33;;;;;;;15.05;11.43;;;9.50;99.90;;;;;;5112275;27;20105;-77
2021/12/17 12:24:09;;;;;;;13.65;10.55;;;9.50;99.90;;;;;;5104297;28;20104;-76
2021/12/17 12:26:50;;;;;;;14.05;10.88;;;9.50;99.90;;;;;;5093304;28;20057;-77
2021/12/17 12:29:15;;;;;;;;;;;9.50;99.90;;;;;;5113274;28;20047;-77
2021/12/17 12:31:44;;;;;;;15.65;11.77;;;9.50;99.90;;;;;;5112113;28;19920;-77
2021/12/17 12:34:19;;;;;;;16.10;12.52;;;9.50;99.90;;;;;;5092930;28;20059;-77
2021/12/17 12:36:48;;;;;;;17.20;12.13;;;9.60;99.90;;;;;;5093485;28;20048;-76
2021/12/17 12:39:57;;;;;;;15.85;11.98;;;9.60;99.90;;;;;;5113345;28;20506;-76
2021/12/17 12:42:30;;;;;;;16.63;11.85;;;9.60;99.90;;;;;;5064346;28;20545;-77
2021/12/17 12:44:55;;;;;;;17.48;11.80;;;9.60;99.90;;;;;;5082800;28;20052;-76
2021/12/17 12:47:25;;;;;;;14.77;11.48;;;9.60;99.90;;;;;;5104194;28;20039;-77
2021/12/17 12:50:14;;;;;;;16.00;12.50;;;9.60;99.90;;;;;;5098217;28;20035;-76
2021/12/17 12:52:45;;;;;;;17.00;11.88;;;9.60;99.90;;;;;;5109447;28;20104;-77
2021/12/17 12:55:19;;;;;;;18.85;13.00;;;9.50;99.90;;;;;;5092611;28;20458;-77
2021/12/17 12:57:48;;;;;;;16.13;12.65;;;9.50;99.90;;;;;;5092721;28;20544;-77
2021/12/17 13:00:36;;;;;;;17.63;12.20;;;9.50;99.90;;;;;;5092608;28;20044;-77
2021/12/17 13:03:23;;;;;;;18.95;12.30;;;9.50;99.90;;;;;;5096563;28;20040;-77
2021/12/17 13:05:49;;;;;;;17.48;12.95;;;9.50;99.90;;;;;;5112243;28;20450;-75
2021/12/17 13:08:17;;;;;;;17.73;12.77;;;9.50;99.90;;;;;;5094172;28;20046;-77
2021/12/17 13:10:49;;;;;;;16.67;12.90;;;9.50;99.90;;;;;;5092260;28;20168;-77
2021/12/17 13:13:29;;;;;;;21.65;13.23;;;9.50;99.90;;;;;;5097369;28;20043;-77
2021/12/17 13:16:12;;;;;;;20.95;14.18;;;9.50;99.90;;;;;;5112853;28;20388;-77
2021/12/17 13:23:57;;;;;;;19.88;13.73;;;9.50;99.90;;;;;;5093196;28;20098;-77
2021/12/17 13:26:26;;;;;;;18.75;13.88;;;9.60;99.90;;;;;;5092695;28;20052;-77
2021/12/17 13:28:54;;;;;;;19.80;14.00;;;9.60;99.90;;;;;;5092747;28;20112;-73
2021/12/17 13:31:35;;;;;;;19.00;13.52;;;9.60;99.90;;;;;;5098782;28;20047;-77
2021/12/17 13:34:01;;;;;;;;;;;9.60;99.90;;;;;;5101079;28;20039;-77
2021/12/17 13:36:27;;;;;;;20.05;13.70;;;9.60;99.90;;;;;;5103388;28;20014;-77
2021/12/17 13:38:57;;;;;;;19.92;13.88;;;9.60;99.90;;;;;;5110050;28;20177;-74
2021/12/17 13:41:40;;;;;;;17.10;12.90;;;9.60;99.90;;;;;;5091089;28;20386;-75
2021/12/17 13:44:42;;;;;;;19.30;13.05;;;9.60;99.90;;;;;;5083301;28;20044;-77
2021/12/17 13:47:14;;;;;;;16.95;12.95;;;9.60;99.90;;;;;;5112494;28;20066;-77
2021/12/17 13:49:41;;;;;;;20.52;13.35;;;9.60;99.90;;;;;;5102851;28;20044;-77
2021/12/17 13:52:09;;;;;;;19.13;13.73;;;9.60;99.90;;;;;;5094543;28;20051;-77
2021/12/17 13:54:35;;;;;;;19.05;13.40;;;9.60;99.90;;;;;;5100810;28;20067;-77
2021/12/17 13:57:03;;;;;;;19.73;13.68;;;9.60;99.90;;;;;;5107515;28;20068;-77
2021/12/17 13:59:31;;;;;;;18.60;12.43;;;9.60;99.90;;;;;;5112723;28;20073;-77
2021/12/17 14:01:57;;;;;;;18.25;12.30;;;9.60;99.90;;;;;;5104387;28;20036;-73
2021/12/17 14:04:23;;;;;;;18.98;12.50;;;9.50;99.90;;;;;;5112399;28;20047;-78
2021/12/17 14:06:53;;;;;;;19.17;12.73;;;9.50;99.90;;;;;;5107987;28;20055;-78
2021/12/17 14:09:23;;;;;;;19.70;12.82;;;9.50;99.90;;;;;;5091517;28;20044;-78
2021/12/17 14:11:49;;;;;;;19.10;12.88;;;9.50;99.90;;;;;;5094164;28;20048;-78
2021/12/17 14:14:27;;;;;;;20.88;13.13;;;9.50;99.90;;;;;;5111952;28;20221;-78
2021/12/17 14:17:01;;;;;;;19.85;12.85;;;9.50;99.90;;;;;;5110148;28;20505;-77
2021/12/17 14:19:44;;;;;;;18.95;12.63;;;9.50;99.90;;;;;;5092870;28;20055;-76
2021/12/17 14:22:25;;;;;;;19.65;13.40;;;9.50;99.90;;;;;;5112972;28;20043;-76
2021/12/17 14:24:51;;;;;;;19.95;13.02;;;9.40;99.90;;;;;;5112114;28;20047;-77
2021/12/17 14:27:16;;;;;;;19.98;13.07;;;9.40;99.90;;;;;;5095557;28;20252;-77
2021/12/17 14:29:42;;;;;;;20.92;14.05;;;9.40;99.90;;;;;;5091589;28;20404;-76
2021/12/17 14:32:16;;;;;;;19.15;12.77;;;9.40;99.90;;;;;;5113071;28;20047;-77
2021/12/17 14:34:42;;;;;;;21.10;13.65;;;9.40;99.90;;;;;;5114343;28;20039;-77
2021/12/17 14:37:08;;;;;;;19.80;12.88;;;9.40;99.90;;;;;;5095398;28;20047;-77
2021/12/17 14:39:36;;;;;;;19.98;12.95;;;9.40;99.90;;;;;;5094002;28;20397;-77
2021/12/17 14:42:05;;;;;;;22.63;13.80;;;9.40;99.90;;;;;;5110760;28;20040;-77
2021/12/17 14:44:49;;;;;;;20.20;13.00;;;9.40;99.90;;;;;;5109439;28;20040;-77
2021/12/17 14:47:48;;;;;;;18.90;12.85;;;9.40;99.90;;;;;;5095183;28;20438;-77
2021/12/17 15:01:10;;;;;;;19.17;13.18;;;9.30;99.90;;;;;;5112416;28;20047;-77
2021/12/17 15:03:42;;;;;;;16.80;11.65;;;9.30;99.90;;;;;;5115658;28;20184;-75
2021/12/17 15:06:11;;;;;;;15.30;11.65;;;9.30;99.90;;;;;;5094801;28;20044;-77
2021/12/17 15:08:37;;;;;;;17.60;11.80;;;9.30;99.90;;;;;;5095029;28;20114;-77
2021/12/17 15:11:08;;;;;;;13.07;10.43;;;9.30;99.90;;;;;;5095666;28;20047;-74
2021/12/17 15:13:34;;;;;;;13.23;9.95;;;9.30;99.90;;;;;;5096048;28;20412;-77
2021/12/17 15:16:02;;;;;;;12.10;9.68;;;9.30;99.90;;;;;;5114727;28;20047;-77
2021/12/17 15:18:28;;;;;;;12.20;8.48;;;9.30;99.90;;;;;;5110662;28;20492;-77
2021/12/17 15:20:56;;;;;;;12.13;8.70;;;9.30;99.90;;;;;;5107023;28;20059;-77
2021/12/17 15:23:24;;;;;;;11.60;8.43;;;9.20;99.90;;;;;;5094139;28;20485;-77
2021/12/17 15:25:51;;;;;;;12.63;8.52;;;9.20;99.90;;;;;;5101868;28;20055;-77
2021/12/17 15:28:25;;;;;;;11.18;8.25;;;9.20;99.90;;;;;;5074185;28;20051;-77
2021/12/17 15:30:54;;;;;;;9.15;7.30;;;9.20;99.90;;;;;;5092456;28;20401;-77
2021/12/17 15:33:20;;;;;;;9.70;7.13;;;9.20;99.90;;;;;;5089620;28;20080;-77
2021/12/17 15:35:49;;;;;;;8.27;6.50;;;9.10;99.90;;;;;;5090478;28;20039;-76
2021/12/17 15:38:16;;;;;;;8.18;6.50;;;9.10;99.90;;;;;;5112393;28;20052;-76
2021/12/17 15:40:43;;;;;;;7.57;6.25;;;9.20;99.90;;;;;;5093738;28;20458;-77
2021/12/17 15:43:10;;;;;;;8.30;6.50;;;9.20;99.90;;;;;;5092358;28;20040;-77